Time;durP1;ratioP1;P1;durP2;ratioP2;P2;SDS_P1;SDS_P2;PMS_P1;PMS_P2;Temp;Humidity;BMP_temperature;BMP_pressure;BME280_temperature;BME280_humidity;BME280_pressure;Samples;Min_cycle;Max_cycle;Signal;HPM_P1;HPM_P2
2022/11/30 00:00:29;;;;;;;127.28;117.65;;;6.90;99.90;;;;;;5084791;28;20420;-60
2022/11/30 00:02:56;;;;;;;127.07;117.43;;;6.90;99.90;;;;;;5088076;28;20371;-60
2022/11/30 00:05:22;;;;;;;123.38;113.63;;;6.80;99.90;;;;;;5087722;28;20472;-59
2022/11/30 00:07:49;;;;;;;120.10;110.75;;;6.70;99.90;;;;;;5083720;28;20499;-60
2022/11/30 00:10:14;;;;;;;121.60;111.60;;;6.70;99.90;;;;;;5047493;28;20872;-60
2022/11/30 00:12:43;;;;;;;121.55;111.80;;;6.60;99.90;;;;;;5047673;28;20419;-60
2022/11/30 00:15:12;;;;;;;114.75;105.60;;;6.60;99.90;;;;;;5048015;28;20414;-60
2022/11/30 00:17:39;;;;;;;115.97;106.35;;;6.60;99.90;;;;;;5065387;28;20442;-60
2022/11/30 00:20:06;;;;;;;111.32;102.38;;;6.50;99.90;;;;;;5046227;28;20395;-60
2022/11/30 00:22:32;;;;;;;114.70;105.40;;;6.50;99.90;;;;;;5045973;28;20617;-61
2022/11/30 00:24:59;;;;;;;111.33;102.03;;;6.50;99.90;;;;;;5066677;28;20379;-60
2022/11/30 00:27:28;;;;;;;110.22;100.90;;;6.50;99.90;;;;;;5052266;28;20418;-60
2022/11/30 00:29:54;;;;;;;117.57;107.93;;;6.50;99.90;;;;;;5052921;28;20408;-60
2022/11/30 00:32:20;;;;;;;111.90;102.30;;;6.50;99.90;;;;;;5052950;28;20420;-60
2022/11/30 00:34:45;;;;;;;107.68;98.80;;;6.50;99.90;;;;;;5052496;28;20753;-61
2022/11/30 00:37:11;;;;;;;111.83;102.70;;;6.50;99.90;;;;;;5051775;28;20407;-61
2022/11/30 00:39:37;;;;;;;112.20;102.87;;;6.50;99.90;;;;;;5051640;28;20399;-60
2022/11/30 00:42:02;;;;;;;111.30;102.00;;;6.50;99.90;;;;;;5051646;28;20458;-60
2022/11/30 00:44:28;;;;;;;106.43;97.32;;;6.50;99.90;;;;;;5070973;28;20718;-60
2022/11/30 00:46:53;;;;;;;104.47;95.78;;;6.50;99.90;;;;;;5053551;28;20509;-60
2022/11/30 00:49:19;;;;;;;103.03;94.50;;;6.50;99.90;;;;;;5052077;28;20376;-60
2022/11/30 00:51:44;;;;;;;104.35;95.55;;;6.50;99.90;;;;;;5052067;28;21065;-60
2022/11/30 00:54:10;;;;;;;105.80;96.80;;;6.50;99.90;;;;;;5053069;28;20380;-60
2022/11/30 00:56:35;;;;;;;105.53;96.93;;;6.50;99.90;;;;;;5054006;28;20622;-60
2022/11/30 00:59:01;;;;;;;106.03;97.13;;;6.50;99.90;;;;;;5053838;28;20429;-60
2022/11/30 01:01:27;;;;;;;108.53;99.78;;;6.50;99.90;;;;;;5053122;28;20461;-60
2022/11/30 01:03:52;;;;;;;108.40;99.10;;;6.50;99.90;;;;;;5054529;28;20787;-62
2022/11/30 01:06:18;;;;;;;100.20;92.03;;;6.40;99.90;;;;;;5054421;28;20451;-62
2022/11/30 01:08:43;;;;;;;106.65;98.05;;;6.40;99.90;;;;;;5083306;28;20445;-61
2022/11/30 01:11:19;;;;;;;111.63;102.78;;;6.40;99.90;;;;;;5091289;28;20382;-60
2022/11/30 01:13:45;;;;;;;111.22;102.15;;;6.50;99.90;;;;;;5075005;28;20409;-60
2022/11/30 01:16:14;;;;;;;103.03;94.47;;;6.50;99.90;;;;;;5075304;28;20444;-61
2022/11/30 01:18:40;;;;;;;108.35;99.18;;;6.50;99.90;;;;;;5074673;28;20401;-60
2022/11/30 01:21:15;;;;;;;105.78;96.75;;;6.50;99.90;;;;;;5074237;28;20467;-61
2022/11/30 01:23:41;;;;;;;111.22;101.63;;;6.50;99.90;;;;;;5075136;28;20469;-60
2022/11/30 01:26:07;;;;;;;107.22;97.82;;;6.40;99.90;;;;;;5073561;28;20480;-60
2022/11/30 01:28:33;;;;;;;115.60;105.95;;;6.40;99.90;;;;;;5074448;28;20611;-60
2022/11/30 01:31:01;;;;;;;105.30;96.15;;;6.40;99.90;;;;;;5074865;28;20390;-60
2022/11/30 01:33:27;;;;;;;109.95;100.30;;;6.40;99.90;;;;;;5073721;28;20725;-60
2022/11/30 01:36:04;;;;;;;108.72;99.45;;;6.40;99.90;;;;;;5074587;28;20802;-59
2022/11/30 01:38:50;;;;;;;109.55;100.57;;;6.40;99.90;;;;;;5074936;28;20402;-61
2022/11/30 01:41:26;;;;;;;112.43;102.72;;;6.50;99.90;;;;;;5075286;28;20386;-61
2022/11/30 01:44:05;;;;;;;106.10;97.18;;;6.40;99.90;;;;;;5092746;28;20465;-62
2022/11/30 01:46:34;;;;;;;103.25;94.75;;;6.50;99.90;;;;;;5076526;28;20647;-60
2022/11/30 01:49:10;;;;;;;113.00;103.53;;;6.50;99.90;;;;;;5093632;28;20393;-60
2022/11/30 01:51:57;;;;;;;111.63;102.00;;;6.50;99.90;;;;;;5074716;28;20381;-61
2022/11/30 01:54:28;;;;;;;109.25;99.70;;;6.40;99.90;;;;;;5073467;28;20465;-62
2022/11/30 01:57:10;;;;;;;112.97;103.10;;;6.40;99.90;;;;;;5075919;28;20398;-61
2022/11/30 01:59:36;;;;;;;116.28;106.38;;;6.40;99.90;;;;;;5093219;28;20417;-62
2022/11/30 02:02:01;;;;;;;114.13;104.07;;;6.40;99.90;;;;;;5091135;28;20382;-60
2022/11/30 02:04:33;;;;;;;111.32;101.50;;;6.30;99.90;;;;;;5071969;28;20968;-61
2022/11/30 02:07:01;;;;;;;109.13;99.47;;;6.40;99.90;;;;;;5071696;28;20378;-60
2022/11/30 02:09:29;;;;;;;117.07;106.90;;;6.40;99.90;;;;;;5071142;28;20465;-61
2022/11/30 02:11:55;;;;;;;107.70;98.18;;;6.30;99.90;;;;;;5071779;28;20497;-60
2022/11/30 02:14:49;;;;;;;111.22;101.72;;;6.30;99.90;;;;;;5087797;28;20413;-61
2022/11/30 02:17:46;;;;;;;113.07;103.43;;;6.40;99.90;;;;;;5070448;28;20401;-61
2022/11/30 02:20:44;;;;;;;117.82;107.72;;;6.40;99.90;;;;;;5092936;28;20382;-60
2022/11/30 02:23:09;;;;;;;105.85;96.50;;;6.40;99.90;;;;;;5072864;28;20370;-61
2022/11/30 02:26:02;;;;;;;113.07;103.30;;;6.40;99.90;;;;;;5073261;28;20678;-60
2022/11/30 02:28:49;;;;;;;107.20;97.88;;;6.40;99.90;;;;;;5071620;28;20437;-61
2022/11/30 02:31:20;;;;;;;115.97;105.90;;;6.40;99.90;;;;;;5070767;28;20436;-60
2022/11/30 02:33:47;;;;;;;108.18;98.72;;;6.40;99.90;;;;;;5071841;28;20377;-60
2022/11/30 02:36:13;;;;;;;111.45;101.63;;;6.40;99.90;;;;;;5071570;28;20386;-60
2022/11/30 02:38:40;;;;;;;115.47;105.35;;;6.40;99.90;;;;;;5088240;28;20402;-58
2022/11/30 02:41:05;;;;;;;114.15;104.20;;;6.40;99.90;;;;;;5070184;28;20382;-60
2022/11/30 02:43:32;;;;;;;113.40;103.40;;;6.30;99.90;;;;;;5087936;28;20406;-60
2022/11/30 02:46:07;;;;;;;116.93;106.53;;;6.30;99.90;;;;;;5073203;28;20456;-61
2022/11/30 02:48:54;;;;;;;111.72;101.75;;;6.30;99.90;;;;;;5073009;28;20745;-60
2022/11/30 02:51:24;;;;;;;112.00;102.22;;;6.30;99.90;;;;;;5076015;28;20386;-60
2022/11/30 02:53:49;;;;;;;110.25;100.68;;;6.30;99.90;;;;;;5076707;28;20386;-60
2022/11/30 02:56:17;;;;;;;110.93;101.43;;;6.30;99.90;;;;;;5093309;28;20678;-59
2022/11/30 02:58:43;;;;;;;109.45;99.90;;;6.30;99.90;;;;;;5075270;28;20417;-61
2022/11/30 03:01:08;;;;;;;107.53;98.32;;;6.40;99.90;;;;;;5076258;28;20390;-60
2022/11/30 03:03:34;;;;;;;108.88;99.20;;;6.40;99.90;;;;;;5093367;28;20394;-58
2022/11/30 03:05:59;;;;;;;113.60;103.83;;;6.40;99.90;;;;;;5092754;28;20417;-60
2022/11/30 03:08:25;;;;;;;111.77;102.33;;;6.40;99.90;;;;;;5082111;28;20441;-60
2022/11/30 03:10:51;;;;;;;109.22;99.78;;;6.40;99.90;;;;;;5053500;28;20384;-60
2022/11/30 03:13:16;;;;;;;109.83;100.57;;;6.40;99.90;;;;;;5053178;28;20403;-61
2022/11/30 03:15:42;;;;;;;107.40;98.57;;;6.40;99.90;;;;;;5053458;28;20503;-60
2022/11/30 03:18:07;;;;;;;109.90;100.22;;;6.40;99.90;;;;;;5052617;28;20404;-61
2022/11/30 03:20:33;;;;;;;116.32;106.55;;;6.40;99.90;;;;;;5052064;28;20384;-61
2022/11/30 03:23:02;;;;;;;102.97;93.77;;;6.40;99.90;;;;;;5053587;28;20387;-61
2022/11/30 03:25:28;;;;;;;106.13;97.05;;;6.40;99.90;;;;;;5053752;28;20376;-60
2022/11/30 03:27:54;;;;;;;114.50;104.53;;;6.50;99.90;;;;;;5052658;28;20434;-60
2022/11/30 03:30:20;;;;;;;112.75;102.70;;;6.50;99.90;;;;;;5070181;28;20713;-62
2022/11/30 03:32:45;;;;;;;106.90;97.50;;;6.50;99.90;;;;;;5053342;28;20392;-60
2022/11/30 03:35:11;;;;;;;102.55;93.40;;;6.50;99.90;;;;;;5055471;28;20465;-59
2022/11/30 03:37:37;;;;;;;107.07;97.87;;;6.50;99.90;;;;;;5075023;28;20819;-61
2022/11/30 03:40:03;;;;;;;104.80;95.07;;;6.50;99.90;;;;;;5058169;28;20742;-58
2022/11/30 03:42:28;;;;;;;106.22;97.05;;;6.40;99.90;;;;;;5058426;28;20402;-60
2022/11/30 03:44:54;;;;;;;109.37;99.57;;;6.40;99.90;;;;;;5058179;28;20380;-61
2022/11/30 03:47:19;;;;;;;107.70;98.28;;;6.40;99.90;;;;;;5056757;28;20394;-60
2022/11/30 03:49:45;;;;;;;113.80;103.33;;;6.50;99.90;;;;;;5056050;28;20384;-61
2022/11/30 03:52:10;;;;;;;112.67;102.70;;;6.40;99.90;;;;;;5073226;28;20395;-61
2022/11/30 03:54:36;;;;;;;105.53;95.80;;;6.40;99.90;;;;;;5054627;28;20398;-60
2022/11/30 03:57:02;;;;;;;108.97;99.17;;;6.40;99.90;;;;;;5054399;28;20923;-61
2022/11/30 03:59:28;;;;;;;103.72;93.95;;;6.40;99.90;;;;;;5054045;28;20379;-61
2022/11/30 04:01:53;;;;;;;107.63;97.75;;;6.40;99.90;;;;;;5055596;28;20549;-61
2022/11/30 04:04:19;;;;;;;105.73;96.20;;;6.40;99.90;;;;;;5055670;28;20383;-61
2022/11/30 04:06:44;;;;;;;105.97;96.03;;;6.40;99.90;;;;;;5057026;28;20402;-62
2022/11/30 04:09:10;;;;;;;107.70;97.78;;;6.30;99.90;;;;;;5071809;28;20418;-61
2022/11/30 04:11:35;;;;;;;99.67;90.27;;;6.40;99.90;;;;;;5093497;28;20500;-61
2022/11/30 04:14:01;;;;;;;104.17;94.27;;;6.40;99.90;;;;;;5093198;28;20531;-61
2022/11/30 04:16:26;;;;;;;106.03;95.95;;;6.40;99.90;;;;;;5091129;28;20703;-61
2022/11/30 04:18:52;;;;;;;97.57;88.43;;;6.40;99.90;;;;;;5090217;28;20401;-62
2022/11/30 04:21:18;;;;;;;103.13;93.93;;;6.40;99.90;;;;;;5091266;28;20393;-60
2022/11/30 04:23:43;;;;;;;101.63;92.13;;;6.40;99.90;;;;;;5091239;28;20770;-61
2022/11/30 04:26:14;;;;;;;105.33;95.23;;;6.40;99.90;;;;;;5092697;28;20783;-60
2022/11/30 04:28:40;;;;;;;104.07;94.57;;;6.40;99.90;;;;;;5093358;28;20390;-61
2022/11/30 04:31:06;;;;;;;92.15;83.50;;;6.40;99.90;;;;;;5077799;28;20830;-60
2022/11/30 04:33:31;;;;;;;104.82;94.82;;;6.40;99.90;;;;;;5095301;28;20677;-61
2022/11/30 04:36:00;;;;;;;101.15;91.65;;;6.40;99.90;;;;;;5095645;28;20382;-60
2022/11/30 04:38:26;;;;;;;102.18;92.78;;;6.40;99.90;;;;;;5095724;28;20417;-60
2022/11/30 04:40:52;;;;;;;102.38;93.05;;;6.40;99.90;;;;;;5077205;28;20801;-59
2022/11/30 04:43:18;;;;;;;99.18;89.93;;;6.40;99.90;;;;;;5094093;28;20432;-61
2022/11/30 04:45:45;;;;;;;99.00;89.23;;;6.40;99.90;;;;;;5075718;28;20822;-62
2022/11/30 04:48:11;;;;;;;102.90;93.32;;;6.30;99.90;;;;;;5092900;28;20737;-60
2022/11/30 04:50:36;;;;;;;99.18;90.10;;;6.40;99.90;;;;;;5096354;28;20386;-61
2022/11/30 04:53:02;;;;;;;104.37;95.13;;;6.40;99.90;;;;;;5091648;28;20778;-60
2022/11/30 04:55:28;;;;;;;101.00;91.55;;;6.40;99.90;;;;;;5092374;28;20398;-61
2022/11/30 04:57:54;;;;;;;101.77;92.43;;;6.40;99.90;;;;;;5092110;28;20421;-62
2022/11/30 05:00:20;;;;;;;100.55;91.07;;;6.40;99.90;;;;;;5091191;28;20385;-61
2022/11/30 05:02:45;;;;;;;102.80;92.97;;;6.40;99.90;;;;;;5090511;28;20495;-60
2022/11/30 05:05:11;;;;;;;104.75;95.03;;;6.40;99.90;;;;;;5076435;28;20787;-62
2022/11/30 05:07:37;;;;;;;100.13;90.47;;;6.40;99.90;;;;;;5074551;28;20382;-61
2022/11/30 05:10:04;;;;;;;103.50;93.82;;;6.40;99.90;;;;;;5073677;28;20419;-61
2022/11/30 05:12:30;;;;;;;107.28;97.30;;;6.40;99.90;;;;;;5070590;28;20684;-61
2022/11/30 05:14:56;;;;;;;97.10;88.13;;;6.40;99.90;;;;;;5069437;28;20814;-61
2022/11/30 05:17:21;;;;;;;101.70;92.43;;;6.40;99.90;;;;;;5049708;28;20463;-60
2022/11/30 05:19:47;;;;;;;101.78;92.35;;;6.40;99.90;;;;;;5049077;28;20659;-60
2022/11/30 05:22:12;;;;;;;107.77;97.47;;;6.40;99.90;;;;;;5050541;28;20398;-61
2022/11/30 05:24:38;;;;;;;101.13;91.83;;;6.40;99.90;;;;;;5051425;28;20403;-60
2022/11/30 05:27:04;;;;;;;103.50;93.93;;;6.40;99.90;;;;;;5051145;28;20985;-61
2022/11/30 05:29:29;;;;;;;102.18;92.13;;;6.40;99.90;;;;;;5049575;28;20387;-60
2022/11/30 05:31:55;;;;;;;102.10;92.45;;;6.40;99.90;;;;;;5050788;28;20391;-60
2022/11/30 05:34:20;;;;;;;100.20;91.10;;;6.40;99.90;;;;;;5052763;28;20399;-60
2022/11/30 05:36:46;;;;;;;106.50;96.27;;;6.40;99.90;;;;;;5070766;28;20387;-61
2022/11/30 05:39:12;;;;;;;107.43;96.93;;;6.40;99.90;;;;;;5051594;28;20823;-61
2022/11/30 05:41:37;;;;;;;104.65;94.22;;;6.40;99.90;;;;;;5051933;28;20491;-61
2022/11/30 05:44:03;;;;;;;108.40;97.72;;;6.30;99.90;;;;;;5049691;28;20792;-60
2022/11/30 05:46:29;;;;;;;108.03;97.43;;;6.30;99.90;;;;;;5049822;28;20621;-60
2022/11/30 05:48:55;;;;;;;107.03;96.47;;;6.30;99.90;;;;;;5049997;28;20392;-61
2022/11/30 05:51:21;;;;;;;102.15;92.28;;;6.30;99.90;;;;;;5049509;28;20380;-60
2022/11/30 05:53:47;;;;;;;109.20;98.43;;;6.30;99.90;;;;;;5069126;28;20444;-61
2022/11/30 05:56:16;;;;;;;106.07;95.47;;;6.40;99.90;;;;;;5067228;28;20410;-60
2022/11/30 05:58:42;;;;;;;111.22;100.32;;;6.40;99.90;;;;;;5065733;28;20411;-61
2022/11/30 06:01:20;;;;;;;108.72;97.95;;;6.30;99.90;;;;;;5065815;28;20396;-60
2022/11/30 06:03:46;;;;;;;112.47;100.55;;;6.30;99.90;;;;;;5046775;28;20419;-61
2022/11/30 06:06:11;;;;;;;111.83;100.27;;;6.30;99.90;;;;;;5046899;28;20384;-60
2022/11/30 06:08:37;;;;;;;109.93;98.37;;;6.30;99.90;;;;;;5056079;28;20437;-60
2022/11/30 06:11:02;;;;;;;107.82;96.75;;;6.30;99.90;;;;;;5067191;28;20381;-61
2022/11/30 06:13:31;;;;;;;111.50;99.88;;;6.30;99.90;;;;;;5084496;28;20699;-60
2022/11/30 06:16:04;;;;;;;109.20;98.40;;;6.30;99.90;;;;;;5084336;28;20378;-61
2022/11/30 06:18:31;;;;;;;111.53;99.88;;;6.30;99.90;;;;;;5070067;28;20447;-60
2022/11/30 06:21:06;;;;;;;108.65;97.22;;;6.30;99.90;;;;;;5089028;28;20711;-60
2022/11/30 06:23:32;;;;;;;106.18;95.70;;;6.30;99.90;;;;;;5071448;28;20374;-60
2022/11/30 06:26:01;;;;;;;108.20;97.63;;;6.30;99.90;;;;;;5069184;28;20766;-60
2022/11/30 06:28:26;;;;;;;107.30;96.25;;;6.40;99.90;;;;;;5067934;28;20406;-60
2022/11/30 06:30:52;;;;;;;103.13;92.37;;;6.40;99.90;;;;;;5084088;28;20397;-61
2022/11/30 06:33:22;;;;;;;114.70;102.70;;;6.40;99.90;;;;;;5084879;28;20480;-60
2022/11/30 06:35:48;;;;;;;103.75;92.53;;;6.40;99.90;;;;;;5066898;28;20382;-60
2022/11/30 06:38:13;;;;;;;103.05;92.30;;;6.40;99.90;;;;;;5084268;28;20743;-60
2022/11/30 06:40:39;;;;;;;99.38;88.95;;;6.40;99.90;;;;;;5085035;28;20493;-59
2022/11/30 06:43:05;;;;;;;92.75;82.97;;;6.40;99.90;;;;;;5084632;28;20924;-60
2022/11/30 06:45:31;;;;;;;101.80;91.28;;;6.40;99.90;;;;;;5069694;28;20873;-60
2022/11/30 06:47:57;;;;;;;100.70;90.07;;;6.40;99.90;;;;;;5084619;28;20382;-59
2022/11/30 06:50:23;;;;;;;95.35;85.38;;;6.40;99.90;;;;;;5068034;28;20370;-60
2022/11/30 06:52:49;;;;;;;98.72;88.55;;;6.40;99.90;;;;;;5069196;28;20412;-60
2022/11/30 06:55:15;;;;;;;107.00;95.50;;;6.40;99.90;;;;;;5084928;28;20381;-60
2022/11/30 06:57:40;;;;;;;95.73;85.80;;;6.30;99.90;;;;;;5084460;28;20448;-60
2022/11/30 07:00:07;;;;;;;97.57;87.70;;;6.30;99.90;;;;;;5080422;28;20386;-60
2022/11/30 07:02:32;;;;;;;100.57;90.13;;;6.30;99.90;;;;;;5063515;28;20385;-61
2022/11/30 07:04:58;;;;;;;98.57;88.30;;;6.30;99.90;;;;;;5077380;28;20382;-59
2022/11/30 07:07:24;;;;;;;99.13;89.38;;;6.30;99.90;;;;;;5075963;28;20764;-60
2022/11/30 07:09:50;;;;;;;100.13;89.80;;;6.30;99.90;;;;;;5038955;28;20396;-60
2022/11/30 07:12:17;;;;;;;101.03;90.57;;;6.30;99.90;;;;;;5040364;28;20424;-60
2022/11/30 07:14:42;;;;;;;101.07;91.38;;;6.30;99.90;;;;;;5040991;28;20682;-61
2022/11/30 07:17:08;;;;;;;96.57;86.57;;;6.30;99.90;;;;;;5041142;28;20536;-60
2022/11/30 07:19:33;;;;;;;94.15;85.00;;;6.30;99.90;;;;;;5040127;28;20494;-61
2022/11/30 07:21:59;;;;;;;95.80;86.40;;;6.30;99.90;;;;;;5058549;28;20388;-60
2022/11/30 07:27:09;;;;;;;98.30;88.78;;;6.30;99.90;;;;;;5056227;28;20829;-62
2022/11/30 07:29:35;;;;;;;91.35;82.53;;;6.30;99.90;;;;;;5037401;28;20388;-62
2022/11/30 07:32:00;;;;;;;90.95;82.18;;;6.30;99.90;;;;;;5037746;28;20536;-61
2022/11/30 07:34:26;;;;;;;93.78;84.93;;;6.30;99.90;;;;;;5039509;28;20395;-60
2022/11/30 07:36:52;;;;;;;90.78;82.57;;;6.30;99.90;;;;;;5039325;28;20391;-60
2022/11/30 07:39:18;;;;;;;94.65;85.97;;;6.30;99.90;;;;;;5042249;28;20548;-60
2022/11/30 07:41:44;;;;;;;95.07;86.40;;;6.30;99.90;;;;;;5041954;28;21039;-60
2022/11/30 07:44:10;;;;;;;91.77;83.50;;;6.30;99.90;;;;;;5039318;28;20396;-61
2022/11/30 07:46:37;;;;;;;91.75;83.55;;;6.40;99.90;;;;;;5039772;28;20664;-60
2022/11/30 07:49:08;;;;;;;92.90;84.57;;;6.40;99.90;;;;;;5038729;28;20380;-60
2022/11/30 07:51:34;;;;;;;94.78;86.68;;;6.40;99.90;;;;;;5038166;28;20402;-60
2022/11/30 07:54:00;;;;;;;90.65;82.22;;;6.40;99.90;;;;;;5036234;28;20473;-61
2022/11/30 07:56:27;;;;;;;93.28;84.97;;;6.40;99.90;;;;;;5034519;28;20530;-60
2022/11/30 07:58:55;;;;;;;96.22;87.25;;;6.40;99.90;;;;;;5033616;28;20403;-61
2022/11/30 08:01:23;;;;;;;91.00;82.82;;;6.40;99.90;;;;;;5030528;28;20404;-61
2022/11/30 08:03:49;;;;;;;92.18;84.57;;;6.30;99.90;;;;;;5036395;28;20648;-61
2022/11/30 08:06:20;;;;;;;86.18;78.78;;;6.30;99.90;;;;;;5037513;28;20410;-60
2022/11/30 08:08:48;;;;;;;90.68;82.65;;;6.40;99.90;;;;;;5078447;28;20553;-61
2022/11/30 08:11:16;;;;;;;88.80;81.22;;;6.30;99.90;;;;;;5074591;28;20674;-60
2022/11/30 08:13:42;;;;;;;87.47;80.20;;;6.40;99.90;;;;;;5062567;28;20481;-60
2022/11/30 08:16:13;;;;;;;90.65;83.05;;;6.40;99.90;;;;;;5074120;28;20877;-60
2022/11/30 08:18:39;;;;;;;90.97;83.55;;;6.40;99.90;;;;;;5073993;28;20594;-61
2022/11/30 08:21:07;;;;;;;88.43;81.20;;;6.40;99.90;;;;;;5076859;28;20372;-60
2022/11/30 08:23:36;;;;;;;87.68;80.68;;;6.50;99.90;;;;;;5078066;28;20563;-60
2022/11/30 08:26:07;;;;;;;85.77;79.03;;;6.50;99.90;;;;;;5078630;28;20465;-61
2022/11/30 08:28:36;;;;;;;82.38;75.95;;;6.50;99.90;;;;;;5095054;28;20392;-61
2022/11/30 08:31:05;;;;;;;82.53;75.68;;;6.50;99.90;;;;;;5076387;28;20380;-60
2022/11/30 08:33:31;;;;;;;87.28;80.18;;;6.50;99.90;;;;;;5096312;28;20376;-61
2022/11/30 08:36:18;;;;;;;87.07;80.00;;;6.40;99.90;;;;;;5095403;28;20819;-59
2022/11/30 08:38:45;;;;;;;83.95;77.40;;;6.40;99.90;;;;;;5078966;28;20559;-60
2022/11/30 08:41:14;;;;;;;82.22;75.78;;;6.50;99.90;;;;;;5077412;28;20756;-60
2022/11/30 08:43:39;;;;;;;87.10;80.10;;;6.50;99.90;;;;;;5078545;28;20407;-60
2022/11/30 08:46:09;;;;;;;82.73;76.33;;;6.50;99.90;;;;;;5080215;28;20381;-61
2022/11/30 08:48:34;;;;;;;83.88;77.38;;;6.40;99.90;;;;;;5098388;28;20377;-60
2022/11/30 08:51:02;;;;;;;81.68;75.18;;;6.50;99.90;;;;;;5081267;28;20385;-60
2022/11/30 08:53:27;;;;;;;83.40;77.05;;;6.50;99.90;;;;;;5080967;28;20400;-61
2022/11/30 08:55:58;;;;;;;81.60;75.13;;;6.50;99.90;;;;;;5079518;28;20393;-61
2022/11/30 08:58:24;;;;;;;85.10;78.50;;;6.40;99.90;;;;;;5044425;28;20655;-61
2022/11/30 09:00:50;;;;;;;82.97;76.57;;;6.40;99.90;;;;;;5080490;28;20442;-61
2022/11/30 09:03:16;;;;;;;81.45;74.97;;;6.50;99.90;;;;;;5081768;28;20376;-61
2022/11/30 09:05:42;;;;;;;82.77;76.43;;;6.50;99.90;;;;;;5096466;28;20876;-61
2022/11/30 09:08:07;;;;;;;81.63;75.60;;;6.50;99.90;;;;;;5074145;28;20817;-61
2022/11/30 09:10:33;;;;;;;82.53;76.18;;;6.50;99.90;;;;;;5072296;28;20453;-61
2022/11/30 09:12:58;;;;;;;85.37;78.83;;;6.50;99.90;;;;;;5089788;28;20411;-61
2022/11/30 09:15:24;;;;;;;89.50;82.73;;;6.50;99.90;;;;;;5065169;28;20389;-60
2022/11/30 09:17:50;;;;;;;83.77;77.37;;;6.50;99.90;;;;;;5066632;28;20499;-61
2022/11/30 09:20:16;;;;;;;91.00;84.57;;;6.40;99.90;;;;;;5067329;28;20500;-61
2022/11/30 09:22:42;;;;;;;82.50;76.60;;;6.50;99.90;;;;;;5066961;28;20373;-61
2022/11/30 09:25:08;;;;;;;84.43;78.27;;;6.50;99.90;;;;;;5066734;28;20780;-60
2022/11/30 09:27:34;;;;;;;88.78;82.60;;;6.50;99.90;;;;;;5050032;28;20567;-60
2022/11/30 09:29:59;;;;;;;78.72;73.18;;;6.50;99.90;;;;;;5088144;28;20664;-61
2022/11/30 09:32:27;;;;;;;80.00;74.53;;;6.60;99.90;;;;;;5071704;28;20408;-61
2022/11/30 09:34:52;;;;;;;82.43;76.75;;;6.60;99.90;;;;;;5077725;28;20464;-61
2022/11/30 09:37:18;;;;;;;87.72;81.82;;;6.60;99.90;;;;;;5076174;28;20444;-61
2022/11/30 09:39:43;;;;;;;80.37;74.80;;;6.60;99.90;;;;;;5076903;28;20380;-60
2022/11/30 09:42:32;;;;;;;81.90;76.20;;;6.60;99.90;;;;;;5076201;28;20403;-61
2022/11/30 09:45:10;;;;;;;87.70;81.93;;;6.60;99.90;;;;;;5064738;28;20506;-61
2022/11/30 09:48:08;;;;;;;89.47;83.47;;;6.60;99.90;;;;;;5076488;28;20384;-61
2022/11/30 09:50:41;;;;;;;81.33;75.70;;;6.60;99.90;;;;;;5030342;28;20613;-61
2022/11/30 09:53:18;;;;;;;79.88;74.28;;;6.60;99.90;;;;;;5076252;28;20412;-61
2022/11/30 09:55:44;;;;;;;81.63;76.05;;;6.60;99.90;;;;;;5076491;28;20380;-60
2022/11/30 09:58:33;;;;;;;83.88;78.20;;;6.60;99.90;;;;;;5077308;28;20427;-60
2022/11/30 10:00:59;;;;;;;82.70;77.00;;;6.60;99.90;;;;;;5077958;28;20690;-60
2022/11/30 10:03:25;;;;;;;88.95;82.90;;;6.70;99.90;;;;;;5083966;28;20475;-60
2022/11/30 10:06:11;;;;;;;81.20;75.63;;;6.70;99.90;;;;;;5101750;28;20408;-60
2022/11/30 10:08:59;;;;;;;88.73;82.77;;;6.70;99.90;;;;;;5082345;28;20920;-60
2022/11/30 10:11:47;;;;;;;84.43;78.82;;;6.60;99.90;;;;;;5079619;28;20386;-60
2022/11/30 10:14:34;;;;;;;85.60;79.73;;;6.60;99.90;;;;;;5078753;28;20374;-60
2022/11/30 10:17:27;;;;;;;80.30;74.80;;;6.60;99.90;;;;;;5059013;28;21134;-60
2022/11/30 10:20:26;;;;;;;85.70;80.03;;;6.60;99.90;;;;;;5080503;28;20394;-61
2022/11/30 10:23:19;;;;;;;84.30;78.78;;;6.70;99.90;;;;;;5079121;28;20373;-61
2022/11/30 10:26:05;;;;;;;87.20;81.38;;;6.70;99.90;;;;;;5076349;28;20377;-61
2022/11/30 10:28:52;;;;;;;83.45;77.90;;;6.60;99.90;;;;;;5075163;28;20390;-61
2022/11/30 10:31:31;;;;;;;81.43;75.80;;;6.60;99.90;;;;;;5072542;28;21093;-61
2022/11/30 10:34:21;;;;;;;88.93;82.65;;;6.60;99.90;;;;;;5053514;28;20378;-60
2022/11/30 10:37:09;;;;;;;85.55;79.65;;;6.60;99.90;;;;;;5063180;28;20608;-61
2022/11/30 10:40:04;;;;;;;84.95;79.10;;;6.60;99.90;;;;;;5039348;28;20439;-61
2022/11/30 10:42:54;;;;;;;80.53;74.88;;;6.60;99.90;;;;;;5069620;28;20422;-61
2022/11/30 10:45:22;;;;;;;80.43;74.78;;;6.60;99.90;;;;;;5059173;28;20390;-60
2022/11/30 10:48:13;;;;;;;83.53;77.80;;;6.60;99.90;;;;;;5071491;28;20427;-60
2022/11/30 10:50:39;;;;;;;82.40;76.80;;;6.60;99.90;;;;;;5069523;28;20440;-60
2022/11/30 10:53:05;;;;;;;81.25;75.63;;;6.70;99.90;;;;;;5066221;28;20374;-60
2022/11/30 10:55:37;;;;;;;83.65;77.28;;;6.60;99.90;;;;;;5066071;28;20700;-60
2022/11/30 10:58:20;;;;;;;83.32;77.47;;;6.60;99.90;;;;;;5076138;28;20510;-59
2022/11/30 11:01:33;;;;;;;85.38;79.70;;;6.60;99.90;;;;;;5061657;28;20858;-60
2022/11/30 11:04:21;;;;;;;80.32;74.82;;;6.60;99.90;;;;;;5070924;28;20382;-59
2022/11/30 11:06:58;;;;;;;81.10;75.53;;;6.60;99.90;;;;;;5076762;28;20403;-59
2022/11/30 11:09:38;;;;;;;83.88;78.22;;;6.60;99.90;;;;;;5075745;28;20408;-60
2022/11/30 11:12:27;;;;;;;87.43;81.23;;;6.60;99.90;;;;;;5096293;28;20402;-60
2022/11/30 11:15:23;;;;;;;81.65;76.05;;;6.60;99.90;;;;;;5073303;28;20369;-60
2022/11/30 11:17:50;;;;;;;89.13;82.90;;;6.60;99.90;;;;;;5063326;28;20446;-60
2022/11/30 11:20:30;;;;;;;87.65;81.35;;;6.60;99.90;;;;;;5067786;28;20380;-60
2022/11/30 11:23:03;;;;;;;86.68;80.32;;;6.50;99.90;;;;;;5069654;28;20384;-60
2022/11/30 11:25:35;;;;;;;85.73;79.53;;;6.50;99.90;;;;;;5075507;28;20376;-60
2022/11/30 11:28:07;;;;;;;85.40;79.18;;;6.50;99.90;;;;;;5096865;28;20431;-60
2022/11/30 11:30:34;;;;;;;85.68;79.75;;;6.50;99.90;;;;;;5078780;28;20388;-60
2022/11/30 11:33:22;;;;;;;84.50;78.82;;;6.50;99.90;;;;;;5076812;28;20738;-60
2022/11/30 11:36:15;;;;;;;81.10;75.30;;;6.60;99.90;;;;;;5095032;28;20455;-60
2022/11/30 11:38:44;;;;;;;79.35;73.65;;;6.60;99.90;;;;;;5039073;28;20764;-60
2022/11/30 11:41:22;;;;;;;82.63;76.90;;;6.60;99.90;;;;;;5079089;28;20574;-60
2022/11/30 11:44:09;;;;;;;78.97;73.30;;;6.60;99.90;;;;;;5079336;28;20396;-60
2022/11/30 11:46:50;;;;;;;81.22;75.50;;;6.70;99.90;;;;;;5077458;28;20396;-60
2022/11/30 11:49:36;;;;;;;77.70;72.30;;;6.70;99.90;;;;;;5080872;28;20383;-60
2022/11/30 11:52:07;;;;;;;83.85;77.95;;;6.70;99.90;;;;;;5083089;28;20392;-60
2022/11/30 11:54:43;;;;;;;84.63;78.65;;;6.60;99.90;;;;;;5078090;28;21390;-60
2022/11/30 11:57:13;;;;;;;81.03;74.97;;;6.60;99.90;;;;;;5080910;28;20396;-61
2022/11/30 11:59:57;;;;;;;85.28;79.45;;;6.60;99.90;;;;;;5084282;28;20446;-60
2022/11/30 12:02:47;;;;;;;85.15;79.55;;;6.50;99.90;;;;;;5089599;28;20416;-60
2022/11/30 12:05:15;;;;;;;84.95;78.78;;;6.60;99.90;;;;;;5086998;28;20411;-60
2022/11/30 12:08:00;;;;;;;84.47;78.28;;;6.50;99.90;;;;;;5085148;28;20487;-61
2022/11/30 12:11:01;;;;;;;87.72;81.43;;;6.50;99.90;;;;;;5076996;28;20392;-60
2022/11/30 12:13:38;;;;;;;82.95;77.22;;;6.50;99.90;;;;;;5074688;28;20403;-60
2022/11/30 12:16:13;;;;;;;85.50;79.53;;;6.50;99.90;;;;;;5069820;28;20388;-60
2022/11/30 12:19:09;;;;;;;86.68;80.53;;;6.50;99.90;;;;;;5067513;28;20427;-60
2022/11/30 12:21:54;;;;;;;84.13;78.13;;;6.50;99.90;;;;;;5066859;28;20384;-58
2022/11/30 12:24:24;;;;;;;80.22;74.53;;;6.50;99.90;;;;;;5072571;28;20376;-60
2022/11/30 12:26:58;;;;;;;81.93;76.00;;;6.50;99.90;;;;;;5075903;28;20395;-61
2022/11/30 12:29:57;;;;;;;85.05;78.80;;;6.50;99.90;;;;;;5097006;28;20479;-58
2022/11/30 12:32:45;;;;;;;86.03;79.55;;;6.50;99.90;;;;;;5074006;28;20574;-60
2022/11/30 12:35:50;;;;;;;85.70;79.33;;;6.50;99.90;;;;;;5075627;28;20474;-60
2022/11/30 12:38:41;;;;;;;81.57;75.30;;;6.40;99.90;;;;;;5071927;28;20827;-61
2022/11/30 12:41:35;;;;;;;89.13;82.60;;;6.50;99.90;;;;;;5078577;28;20372;-60
2022/11/30 12:44:15;;;;;;;90.68;83.78;;;6.50;99.90;;;;;;5080147;28;20897;-61
2022/11/30 12:47:00;;;;;;;88.68;81.88;;;6.50;99.90;;;;;;5101475;28;20403;-60
2022/11/30 12:49:26;;;;;;;86.07;79.50;;;6.50;99.90;;;;;;5096165;28;20442;-61
2022/11/30 12:52:31;;;;;;;90.80;84.25;;;6.60;99.90;;;;;;5078760;28;20550;-60